createdAt,value
2018-09-01T00:00:05.217Z,56.83
2018-09-01T00:02:33.318Z,58.26
2018-09-01T00:05:01.423Z,57.87
2018-09-01T00:07:29.498Z,57.68
2018-09-01T00:09:57.604Z,58.61
2018-09-01T00:12:25.682Z,58.33
2018-09-01T00:14:53.747Z,58.55
2018-09-01T00:17:27.217Z,58.37
2018-09-01T00:19:55.361Z,58.77
2018-09-01T00:22:23.455Z,59.24
2018-09-01T00:24:52.526Z,58.71
2018-09-01T00:27:20.891Z,59.69
2018-09-01T00:29:49.369Z,59.99
2018-09-01T00:32:17.460Z,59.76
2018-09-01T00:34:45.540Z,59.37
2018-09-01T00:37:15.918Z,60.03
2018-09-01T00:39:43.948Z,59.86
2018-09-01T00:42:12.588Z,60.39
2018-09-01T00:44:40.733Z,60.23
2018-09-01T00:47:08.950Z,59.78
2018-09-01T00:49:37.046Z,59.54
2018-09-01T00:52:05.117Z,60.81
2018-09-01T00:54:33.212Z,60.25
2018-09-01T00:57:01.312Z,60.48
2018-09-01T00:59:29.419Z,60.52
2018-09-01T01:01:57.504Z,60.93
2018-09-01T01:04:25.608Z,60.57
2018-09-01T01:06:53.734Z,61.05
2018-09-01T01:09:21.812Z,60.93
2018-09-01T01:11:49.890Z,60.91
2018-09-01T01:14:17.969Z,60.98
2018-09-01T01:16:46.049Z,61.83
2018-09-01T01:19:14.204Z,61.43
2018-09-01T01:21:42.296Z,61.68
2018-09-01T01:24:10.355Z,62.15
2018-09-01T01:26:38.429Z,61.64
2018-09-01T01:29:06.497Z,61.44
2018-09-01T01:31:34.599Z,61.41
2018-09-01T01:34:02.691Z,62.06
2018-09-01T01:36:30.771Z,62.18
2018-09-01T01:38:58.848Z,61.44
2018-09-01T01:41:26.938Z,62.21
2018-09-01T01:43:55.012Z,62.63
2018-09-01T01:46:23.063Z,62.40
2018-09-01T01:48:51.143Z,62.91
2018-09-01T01:51:19.216Z,62.74
2018-09-01T01:53:47.311Z,62.77
2018-09-01T01:56:15.395Z,63.21
2018-09-01T01:58:43.471Z,62.82
2018-09-01T02:01:11.532Z,63.00
2018-09-01T02:03:39.603Z,62.59
2018-09-01T02:06:07.696Z,63.37
2018-09-01T02:08:35.816Z,62.89
2018-09-01T02:11:03.886Z,62.92
2018-09-01T02:13:32.039Z,62.99
2018-09-01T02:16:00.141Z,63.14
2018-09-01T02:18:28.223Z,63.76
2018-09-01T02:20:56.302Z,64.25
2018-09-01T02:23:24.390Z,64.59
2018-09-01T02:25:52.456Z,64.18
2018-09-01T02:28:20.511Z,64.18
2018-09-01T02:30:48.603Z,64.64
2018-09-01T02:33:16.727Z,64.79
2018-09-01T02:35:44.799Z,64.58
2018-09-01T02:38:12.891Z,64.59
2018-09-01T02:40:41.172Z,65.66
2018-09-01T02:43:09.283Z,65.23
2018-09-01T02:45:37.367Z,65.44
2018-09-01T02:48:06.148Z,65.19
2018-09-01T02:50:34.309Z,65.14
2018-09-01T02:53:02.413Z,65.37
2018-09-01T02:55:30.529Z,65.40
2018-09-01T02:57:58.630Z,66.07
2018-09-01T03:00:32.098Z,65.66
2018-09-01T03:03:00.170Z,66.32
2018-09-01T03:05:28.322Z,65.96
2018-09-01T03:07:56.420Z,65.78
2018-09-01T03:10:24.566Z,65.30
2018-09-01T03:12:52.756Z,66.39
2018-09-01T03:15:20.844Z,65.85
2018-09-01T03:17:48.973Z,65.65
2018-09-01T03:20:17.065Z,65.90
2018-09-01T03:22:45.168Z,65.94
2018-09-01T03:25:13.339Z,66.37
2018-09-01T03:27:41.421Z,66.17
2018-09-01T03:30:09.500Z,66.62
2018-09-01T03:32:37.615Z,65.85
2018-09-01T03:35:06.218Z,66.21
2018-09-01T03:37:34.297Z,67.21
2018-09-01T03:40:02.429Z,66.76
2018-09-01T03:42:30.507Z,67.42
2018-09-01T03:44:58.568Z,67.45
2018-09-01T03:47:26.631Z,67.43
2018-09-01T03:49:54.724Z,66.93
2018-09-01T03:52:29.632Z,67.49
2018-09-01T03:54:57.695Z,67.47
2018-09-01T03:57:25.847Z,66.77
2018-09-01T03:59:53.900Z,67.51
2018-09-01T04:02:21.972Z,66.65
2018-09-01T04:04:50.043Z,66.16
2018-09-01T04:07:18.147Z,66.95
2018-09-01T04:09:46.227Z,66.58
2018-09-01T04:12:14.340Z,67.46
2018-09-01T04:14:42.400Z,67.60
2018-09-01T04:17:10.491Z,67.00
2018-09-01T04:19:38.577Z,67.35
2018-09-01T04:22:06.683Z,68.02
2018-09-01T04:24:34.793Z,68.18
2018-09-01T04:27:02.929Z,67.56
2018-09-01T04:29:31.055Z,67.75
2018-09-01T04:31:59.186Z,68.10
2018-09-01T04:34:27.223Z,67.87
2018-09-01T04:36:55.387Z,67.85
2018-09-01T04:39:23.475Z,67.98
2018-09-01T04:41:51.638Z,68.60
2018-09-01T04:44:19.712Z,68.34
2018-09-01T04:46:47.790Z,68.44
2018-09-01T04:49:15.867Z,68.94
2018-09-01T04:51:43.952Z,68.91
2018-09-01T04:54:12.015Z,68.38
2018-09-01T04:56:40.128Z,68.55
2018-09-01T04:59:09.228Z,68.90
2018-09-01T05:01:37.342Z,68.88
2018-09-01T05:04:05.398Z,69.23
2018-09-01T05:06:33.538Z,69.55
2018-09-01T05:09:01.610Z,69.27
2018-09-01T05:11:29.723Z,70.04
2018-09-01T05:13:57.795Z,69.85
2018-09-01T05:16:25.926Z,69.55
2018-09-01T05:18:53.941Z,69.47
2018-09-01T05:21:22.028Z,70.42
2018-09-01T05:23:50.097Z,69.46
2018-09-01T05:26:18.159Z,69.29
2018-09-01T05:28:46.263Z,69.71
2018-09-01T05:31:14.345Z,69.59
2018-09-01T05:33:42.607Z,69.86
2018-09-01T05:36:10.688Z,69.82
2018-09-01T05:38:38.898Z,70.14
2018-09-01T05:41:07.026Z,69.82
2018-09-01T05:43:35.183Z,69.99
2018-09-01T05:46:03.239Z,70.40
2018-09-01T05:48:31.306Z,69.42
2018-09-01T05:50:59.499Z,70.15
2018-09-01T05:53:27.570Z,70.29
2018-09-01T05:55:55.736Z,69.89
2018-09-01T05:58:23.837Z,70.16
2018-09-01T06:00:51.943Z,69.90
2018-09-01T06:03:20.007Z,69.74
2018-09-01T06:05:48.734Z,70.20
2018-09-01T06:08:17.170Z,69.38
2018-09-01T06:10:45.262Z,69.77
2018-09-01T06:13:13.323Z,70.22
2018-09-01T06:18:35.762Z,69.34
2018-09-01T06:21:03.860Z,69.04
2018-09-01T06:23:31.923Z,69.62
2018-09-01T06:26:00.077Z,68.99
2018-09-01T06:28:33.048Z,68.96
2018-09-01T06:31:01.151Z,68.33
2018-09-01T06:33:29.313Z,68.10
2018-09-01T06:35:57.421Z,67.82
2018-09-01T06:38:25.564Z,67.92
2018-09-01T06:40:53.703Z,67.88
2018-09-01T06:43:21.907Z,68.51
2018-09-01T06:45:49.977Z,67.64
2018-09-01T06:48:18.409Z,67.87
2018-09-01T06:50:46.481Z,67.06
2018-09-01T06:53:14.551Z,67.27
2018-09-01T06:55:42.623Z,67.22
2018-09-01T06:58:10.710Z,67.04
2018-09-01T07:00:38.759Z,66.78
2018-09-01T07:03:06.830Z,66.89
2018-09-01T07:05:34.918Z,66.85
2018-09-01T07:08:03.054Z,66.05
2018-09-01T07:10:31.135Z,66.15
2018-09-01T07:12:59.206Z,65.57
2018-09-01T07:15:27.287Z,65.43
2018-09-01T07:17:55.420Z,65.67
2018-09-01T07:20:23.495Z,64.58
2018-09-01T07:22:57.991Z,65.17
2018-09-01T07:25:26.730Z,63.44
2018-09-01T07:27:54.810Z,62.83
2018-09-01T07:30:22.916Z,62.34
2018-09-01T07:32:51.047Z,62.22
2018-09-01T07:35:19.170Z,61.80
2018-09-01T07:37:47.259Z,61.54
2018-09-01T07:40:15.412Z,60.52
2018-09-01T07:42:43.589Z,61.02
2018-09-01T07:45:11.732Z,60.06
2018-09-01T07:47:39.869Z,59.99
2018-09-01T07:50:08.096Z,60.24
2018-09-01T07:52:36.143Z,59.78
2018-09-01T07:55:04.251Z,60.17
2018-09-01T07:57:32.341Z,59.46
2018-09-01T08:00:00.412Z,58.39
2018-09-01T08:02:28.498Z,57.74
2018-09-01T08:04:56.561Z,57.58
2018-09-01T08:07:24.670Z,57.25
2018-09-01T08:09:52.793Z,57.10
2018-09-01T08:12:20.894Z,57.07
2018-09-01T08:14:48.960Z,56.93
2018-09-01T08:17:17.084Z,57.82
2018-09-01T08:19:45.139Z,57.04
2018-09-01T08:22:13.221Z,57.01
2018-09-01T08:24:41.274Z,57.62
2018-09-01T08:27:09.386Z,56.71
2018-09-01T08:29:37.474Z,55.91
2018-09-01T08:32:05.567Z,55.72
2018-09-01T08:34:33.638Z,55.23
2018-09-01T08:37:01.751Z,55.44
2018-09-01T08:39:29.832Z,54.90
2018-09-01T08:41:57.914Z,54.28
2018-09-01T08:44:25.983Z,54.54
2018-09-01T08:46:54.039Z,54.22
2018-09-01T08:49:22.115Z,53.93
2018-09-01T08:51:50.174Z,54.07
2018-09-01T08:54:18.313Z,52.88
2018-09-01T08:56:46.367Z,52.82
2018-09-01T08:59:14.451Z,53.06
2018-09-01T09:01:42.772Z,52.77
2018-09-01T09:04:10.859Z,52.68
2018-09-01T09:06:38.927Z,52.34
2018-09-01T09:09:07.243Z,52.17
2018-09-01T09:11:36.526Z,52.06
2018-09-01T09:14:04.603Z,50.89
2018-09-01T09:16:32.643Z,51.47
2018-09-01T09:19:00.716Z,50.88
2018-09-01T09:21:28.822Z,50.81
2018-09-01T09:23:56.885Z,50.06
2018-09-01T09:26:24.943Z,49.09
2018-09-01T09:28:53.019Z,49.46
2018-09-01T09:31:21.104Z,49.94
2018-09-01T09:33:49.165Z,48.23
2018-09-01T09:36:17.254Z,48.06
2018-09-01T09:38:45.361Z,49.01
2018-09-01T09:41:13.462Z,47.49
2018-09-01T09:43:41.663Z,47.81
2018-09-01T09:46:09.785Z,47.40
2018-09-01T09:48:37.878Z,47.91
2018-09-01T09:51:05.944Z,47.22
2018-09-01T09:53:34.108Z,47.25
2018-09-01T09:56:02.170Z,47.08
2018-09-01T09:58:30.239Z,47.85
2018-09-01T10:01:03.449Z,47.27
2018-09-01T10:03:31.486Z,45.99
2018-09-01T10:05:59.593Z,45.66
2018-09-01T10:08:27.663Z,46.30
2018-09-01T10:10:55.932Z,45.58
2018-09-01T10:13:23.972Z,43.53
2018-09-01T10:15:52.067Z,43.17
2018-09-01T10:18:20.195Z,43.66
2018-09-01T10:20:48.299Z,42.47
2018-09-01T10:23:16.426Z,43.72
2018-09-01T10:25:44.524Z,41.81
2018-09-01T10:28:12.590Z,42.19
2018-09-01T10:30:40.683Z,42.49
2018-09-01T10:33:08.767Z,41.81
2018-09-01T10:35:36.851Z,42.42
2018-09-01T10:38:04.985Z,42.66
2018-09-01T10:40:33.070Z,43.63
2018-09-01T10:43:01.159Z,43.59
2018-09-01T10:45:29.202Z,44.22
2018-09-01T10:47:57.299Z,43.50
2018-09-01T10:50:25.348Z,41.83
2018-09-01T10:52:53.456Z,42.22
2018-09-01T10:55:21.553Z,42.42
2018-09-01T10:57:49.602Z,41.08
2018-09-01T11:00:20.459Z,40.90
2018-09-01T11:02:49.902Z,40.73
2018-09-01T11:05:18.101Z,40.06
2018-09-01T11:07:46.166Z,39.77
2018-09-01T11:10:14.284Z,39.08
2018-09-01T11:12:42.369Z,40.09
2018-09-01T11:15:10.460Z,38.54
2018-09-01T11:17:38.538Z,39.45
2018-09-01T11:20:06.621Z,39.01
2018-09-01T11:22:34.727Z,39.10
2018-09-01T11:25:02.851Z,38.04
2018-09-01T11:27:30.960Z,38.44
2018-09-01T11:29:59.008Z,37.89
2018-09-01T11:32:27.430Z,37.87
2018-09-01T11:34:55.546Z,38.30
2018-09-01T11:37:23.653Z,38.28
2018-09-01T11:39:51.748Z,37.77
2018-09-01T11:42:19.847Z,39.03
2018-09-01T11:44:47.930Z,38.56
2018-09-01T11:47:16.030Z,38.75
2018-09-01T11:49:44.282Z,38.33
2018-09-01T11:52:12.581Z,37.35
2018-09-01T11:54:40.652Z,37.32
2018-09-01T11:57:08.859Z,36.77
2018-09-01T11:59:36.962Z,37.03
2018-09-01T12:02:05.088Z,36.55
2018-09-01T12:04:33.167Z,37.22
2018-09-01T12:07:01.243Z,37.35
2018-09-01T12:09:29.374Z,37.66
2018-09-01T12:11:57.383Z,35.85
2018-09-01T12:14:25.484Z,36.34
2018-09-01T12:16:53.554Z,35.95
2018-09-01T12:19:21.660Z,36.74
2018-09-01T12:21:49.731Z,36.13
2018-09-01T12:24:17.794Z,37.04
2018-09-01T12:26:46.145Z,36.88
2018-09-01T12:29:14.202Z,37.36
2018-09-01T12:31:42.343Z,36.16
2018-09-01T12:34:10.539Z,35.70
2018-09-01T12:36:38.603Z,36.79
2018-09-01T12:39:06.851Z,36.08
2018-09-01T12:41:34.999Z,36.31
2018-09-01T12:44:03.075Z,35.93
2018-09-01T12:46:31.163Z,35.57
2018-09-01T12:48:59.218Z,36.22
2018-09-01T12:51:27.296Z,35.96
2018-09-01T12:53:55.485Z,36.34
2018-09-01T12:56:23.567Z,34.63
2018-09-01T12:58:51.659Z,35.62
2018-09-01T13:01:19.794Z,35.14
2018-09-01T13:03:47.884Z,34.80
2018-09-01T13:06:15.987Z,34.74
2018-09-01T13:08:44.059Z,35.07
2018-09-01T13:11:12.173Z,35.72
2018-09-01T13:13:40.231Z,34.85
2018-09-01T13:16:08.298Z,35.43
2018-09-01T13:18:36.448Z,36.34
2018-09-01T13:21:04.507Z,35.06
2018-09-01T13:23:32.574Z,34.40
2018-09-01T13:26:00.672Z,34.56
2018-09-01T13:28:28.727Z,34.38
2018-09-01T13:30:56.804Z,35.08
2018-09-01T13:33:24.886Z,35.38
2018-09-01T13:35:52.947Z,35.11
2018-09-01T13:38:21.023Z,34.72
2018-09-01T13:40:49.123Z,35.00
2018-09-01T13:43:17.212Z,34.39
2018-09-01T13:45:45.284Z,34.45
2018-09-01T13:48:13.769Z,34.45
2018-09-01T13:50:42.707Z,34.25
2018-09-01T13:53:11.957Z,34.18
2018-09-01T13:55:40.646Z,33.83
2018-09-01T13:58:08.894Z,34.10
2018-09-01T14:00:37.077Z,33.78
2018-09-01T14:03:05.720Z,34.02
2018-09-01T14:05:34.309Z,33.69
2018-09-01T14:08:02.993Z,33.64
2018-09-01T14:10:31.257Z,34.14
2018-09-01T14:12:59.476Z,33.24
2018-09-01T14:15:28.261Z,33.25
2018-09-01T14:17:56.458Z,33.41
2018-09-01T14:20:24.540Z,33.11
2018-09-01T14:22:52.607Z,33.04
2018-09-01T14:25:20.763Z,33.36
2018-09-01T14:27:48.875Z,32.44
2018-09-01T14:30:16.945Z,32.74
2018-09-01T14:32:45.006Z,32.85
2018-09-01T14:35:13.114Z,34.26
2018-09-01T14:37:41.235Z,32.95
2018-09-01T14:40:09.383Z,32.88
2018-09-01T14:42:37.484Z,33.74
2018-09-01T14:45:05.554Z,33.04
2018-09-01T14:47:33.752Z,33.08
2018-09-01T14:50:01.789Z,33.22
2018-09-01T14:52:29.929Z,33.01
2018-09-01T14:54:58.005Z,33.19
2018-09-01T14:57:26.191Z,33.28
2018-09-01T14:59:54.291Z,32.79
2018-09-01T15:02:22.364Z,33.36
2018-09-01T15:04:50.477Z,33.19
2018-09-01T15:07:18.575Z,33.27
2018-09-01T15:09:46.659Z,33.27
2018-09-01T15:12:14.768Z,33.28
2018-09-01T15:14:42.876Z,32.96
2018-09-01T15:17:11.023Z,32.61
2018-09-01T15:19:39.099Z,32.98
2018-09-01T15:22:07.339Z,33.20
2018-09-01T15:24:35.490Z,33.27
2018-09-01T15:27:03.604Z,33.47
2018-09-01T15:29:31.933Z,33.20
2018-09-01T15:32:00.618Z,32.71
2018-09-01T15:34:28.935Z,32.61
2018-09-01T15:36:57.169Z,32.86
2018-09-01T15:39:25.575Z,32.69
2018-09-01T15:41:57.810Z,33.00
2018-09-01T15:44:25.946Z,32.96
2018-09-01T15:46:54.155Z,33.83
2018-09-01T15:49:22.360Z,33.89
2018-09-01T15:51:50.640Z,34.23
2018-09-01T15:54:19.786Z,34.17
2018-09-01T15:56:47.994Z,34.17
2018-09-01T15:59:16.207Z,34.45
2018-09-01T16:01:45.679Z,34.57
2018-09-01T16:04:13.943Z,34.66
2018-09-01T16:06:42.754Z,34.97
2018-09-01T16:09:11.238Z,34.67
2018-09-01T16:11:43.868Z,34.34
2018-09-01T16:14:13.148Z,33.89
2018-09-01T16:16:42.177Z,33.92
2018-09-01T16:19:10.999Z,33.84
2018-09-01T16:21:39.743Z,34.18
2018-09-01T16:24:09.596Z,34.24
2018-09-01T16:26:39.266Z,34.24
2018-09-01T16:29:10.524Z,34.03
2018-09-01T16:31:43.629Z,33.55
2018-09-01T16:34:12.780Z,34.21
2018-09-01T16:36:41.149Z,34.35
2018-09-01T16:39:12.952Z,33.92
2018-09-01T16:41:43.112Z,34.00
2018-09-01T16:44:12.917Z,34.27
2018-09-01T16:46:42.695Z,34.31
2018-09-01T16:49:10.996Z,34.74
2018-09-01T16:51:39.153Z,34.55
2018-09-01T16:54:07.771Z,34.51
2018-09-01T16:56:36.046Z,34.92
2018-09-01T16:59:04.459Z,34.45
2018-09-01T17:01:33.613Z,34.34
2018-09-01T17:04:01.911Z,34.12
2018-09-01T17:06:30.780Z,34.40
2018-09-01T17:08:59.613Z,34.57
2018-09-01T17:11:28.555Z,34.89
2018-09-01T17:13:56.782Z,34.92
2018-09-01T17:16:25.099Z,35.27
2018-09-01T17:18:53.360Z,34.60
2018-09-01T17:21:24.825Z,35.00
2018-09-01T17:23:55.162Z,34.43
2018-09-01T17:26:25.685Z,34.93
2018-09-01T17:28:53.970Z,34.77
2018-09-01T17:31:22.442Z,35.47
2018-09-01T17:33:51.039Z,35.48
2018-09-01T17:36:19.454Z,35.61
2018-09-01T17:38:47.800Z,35.84
2018-09-01T17:41:16.770Z,35.93
2018-09-01T17:43:44.949Z,36.42
2018-09-01T17:46:14.280Z,36.44
2018-09-01T17:48:42.506Z,37.07
2018-09-01T17:51:11.049Z,37.00
2018-09-01T17:53:39.255Z,36.88
2018-09-01T17:56:07.586Z,37.31
2018-09-01T17:58:36.061Z,37.39
2018-09-01T18:01:05.761Z,37.30
2018-09-01T18:03:36.785Z,37.54
2018-09-01T18:06:05.883Z,37.34
2018-09-01T18:08:41.338Z,38.72
2018-09-01T18:13:54.480Z,38.30
2018-09-01T18:16:24.713Z,38.84
2018-09-01T18:18:59.404Z,38.88
2018-09-01T18:21:36.844Z,38.58
2018-09-01T18:24:08.140Z,39.44
2018-09-01T18:26:45.732Z,39.45
2018-09-01T18:29:14.356Z,39.36
2018-09-01T18:31:45.736Z,39.75
2018-09-01T18:34:20.454Z,39.48
2018-09-01T18:36:49.066Z,39.81
2018-09-01T18:39:19.592Z,39.72
2018-09-01T18:41:48.881Z,40.58
2018-09-01T18:44:17.154Z,40.10
2018-09-01T18:46:46.240Z,40.08
2018-09-01T18:49:29.234Z,40.27
2018-09-01T18:52:05.497Z,40.85
2018-09-01T18:54:33.711Z,40.97
2018-09-01T18:57:02.115Z,40.72
2018-09-01T18:59:30.545Z,41.38
2018-09-01T19:02:01.312Z,41.90
2018-09-01T19:04:43.426Z,41.39
2018-09-01T19:07:12.936Z,42.14
2018-09-01T19:09:44.781Z,41.62
2018-09-01T19:12:14.178Z,42.62
2018-09-01T19:14:43.493Z,42.30
2018-09-01T19:17:12.502Z,42.86
2018-09-01T19:19:45.898Z,42.47
2018-09-01T19:22:14.139Z,43.30
2018-09-01T19:24:43.157Z,43.61
2018-09-01T19:27:14.203Z,43.15
2018-09-01T19:29:43.829Z,43.36
2018-09-01T19:32:18.282Z,44.08
2018-09-01T19:34:48.211Z,44.19
2018-09-01T19:37:19.908Z,43.82
2018-09-01T19:42:24.190Z,44.55
2018-09-01T19:44:52.866Z,44.80
2018-09-01T19:47:22.307Z,44.84
2018-09-01T19:49:53.301Z,44.91
2018-09-01T19:52:21.543Z,44.90
2018-09-01T19:54:54.918Z,45.47
2018-09-01T19:57:27.859Z,44.99
2018-09-01T19:59:56.569Z,45.68
2018-09-01T20:02:25.127Z,45.15
2018-09-01T20:04:55.758Z,45.58
2018-09-01T20:07:24.722Z,44.97
2018-09-01T20:09:55.427Z,45.51
2018-09-01T20:12:28.056Z,45.78
2018-09-01T20:15:06.823Z,45.69
2018-09-01T20:17:39.127Z,45.48
2018-09-01T20:20:11.674Z,45.72
2018-09-01T20:22:41.558Z,46.31
2018-09-01T20:25:11.870Z,46.67
2018-09-01T20:27:42.309Z,46.96
2018-09-01T20:30:15.948Z,46.13
2018-09-01T20:32:51.382Z,46.85
2018-09-01T20:35:28.675Z,46.88
2018-09-01T20:37:59.608Z,46.56
2018-09-01T20:40:33.255Z,47.51
2018-09-01T20:43:06.298Z,47.37
2018-09-01T20:45:37.812Z,46.72
2018-09-01T20:48:06.028Z,47.74
2018-09-01T20:50:35.483Z,48.20
2018-09-01T20:53:03.791Z,47.36
2018-09-01T20:55:36.582Z,47.33
2018-09-01T20:58:05.212Z,47.71
2018-09-01T21:00:38.868Z,48.62
2018-09-01T21:03:07.193Z,48.36
2018-09-01T21:05:41.951Z,47.95
2018-09-01T21:08:12.475Z,48.05
2018-09-01T21:10:47.124Z,48.97
2018-09-01T21:13:15.486Z,48.69
2018-09-01T21:15:45.819Z,49.16
2018-09-01T21:18:16.205Z,49.01
2018-09-01T21:20:45.433Z,48.98
2018-09-01T21:23:14.753Z,48.48
2018-09-01T21:25:43.666Z,49.14
2018-09-01T21:28:16.519Z,48.71
2018-09-01T21:30:45.780Z,48.80
2018-09-01T21:33:14.049Z,49.52
2018-09-01T21:35:43.941Z,49.08
2018-09-01T21:38:12.718Z,49.68
2018-09-01T21:40:45.889Z,49.78
2018-09-01T21:43:15.864Z,49.52
2018-09-01T21:45:45.206Z,49.75
2018-09-01T21:48:16.732Z,50.14
2018-09-01T21:50:44.941Z,49.74
2018-09-01T21:53:14.125Z,50.13
2018-09-01T21:55:42.304Z,50.17
2018-09-01T21:58:10.530Z,50.18
2018-09-01T22:01:06.313Z,50.56
2018-09-01T22:03:38.645Z,50.93
2018-09-01T22:06:06.569Z,50.58
2018-09-01T22:08:35.029Z,51.93
2018-09-01T22:11:06.409Z,51.65
2018-09-01T22:13:35.351Z,51.47
2018-09-01T22:16:03.872Z,51.74
2018-09-01T22:18:32.195Z,50.96
2018-09-01T22:21:00.404Z,51.33
2018-09-01T22:23:28.587Z,51.51
2018-09-01T22:25:56.890Z,51.81
2018-09-01T22:28:25.136Z,52.30
2018-09-01T22:30:54.012Z,52.13
2018-09-01T22:33:22.266Z,52.04
2018-09-01T22:35:52.392Z,52.21
2018-09-01T22:38:21.270Z,51.63
2018-09-01T22:40:49.546Z,52.56
2018-09-01T22:43:18.077Z,52.47
2018-09-01T22:45:47.020Z,52.27
2018-09-01T22:48:15.248Z,52.58
2018-09-01T22:50:43.561Z,52.33
2018-09-01T22:53:12.660Z,52.72
2018-09-01T22:55:42.645Z,53.32
2018-09-01T22:58:11.905Z,52.64
2018-09-01T23:00:40.139Z,52.96
2018-09-01T23:03:08.537Z,52.72
2018-09-01T23:05:37.276Z,53.00
2018-09-01T23:08:06.935Z,53.53
2018-09-01T23:10:36.243Z,53.46
2018-09-01T23:13:05.683Z,53.05
2018-09-01T23:15:34.017Z,53.76
2018-09-01T23:18:03.168Z,53.61
2018-09-01T23:20:32.105Z,52.63
2018-09-01T23:23:01.216Z,53.52
2018-09-01T23:25:30.100Z,53.76
2018-09-01T23:27:59.208Z,53.37
2018-09-01T23:30:30.108Z,54.15
2018-09-01T23:32:58.192Z,54.20
2018-09-01T23:35:26.329Z,54.17
2018-09-01T23:37:54.545Z,55.16
2018-09-01T23:40:22.706Z,56.32
2018-09-01T23:42:50.806Z,56.38
2018-09-01T23:45:19.071Z,58.25
2018-09-01T23:47:47.244Z,58.95
2018-09-01T23:50:15.332Z,59.97
2018-09-01T23:52:43.467Z,60.86
2018-09-01T23:55:11.569Z,62.76
2018-09-01T23:57:39.726Z,63.24
